首页
METAR-TAF:

METAR-TAF

机场 :

杭州萧山国际机场

杭州, 中华人民共和国

纬度: 30-14N, 经度: 120-10E, 海拔: 43米

当前天气观测

该预报发布于20分钟前的00:30 UTC
风速4节,风向西北,在西东北之间变化
温度 3°C
湿度 75%
气压 1032 hPa
能見度: 4000
散云层高于4000英尺
霾,

METAR: ZSHC 260030Z 32002MPS 270V040 4000 HZ SCT040 03/M01 Q1032 NOSIG

时间: 08:50 (00:50 UTC)

预报

该预报发布于3小时和41分钟前的21:09 UTC
预报有效从26日的 00点(UTC)到 26日的 24点(UTC)
风速6节,风向
能見度: 3000
多云层高于2000英尺
轻雾
短暂存在
从 26日的 00点(UTC)到 26日的 06点(UTC)
能見度: 2800
小雨, 雪,

TAF: ZSHC 252109Z 2600/2624 35003MPS 3000 BR BKN020 TX03/2606Z TN01/2621Z TEMPO 2600/2606 2800 -RASN

超过4000个机场的气象观测和天气预报(METAR&TAF报告)。

可查询的气象台以黄色和红色小点在地图上表示。

将鼠标移到小点上方,可查看气象台名称。

然后点击查看天气观测和预报。

如需切换地图:点击带黑十字的绿色按钮放大地图;点击带横线的绿色按钮缩小地图;或者点击绿色箭头查看邻近地区的地图。


METAR-TAF: